Time;durP1;ratioP1;P1;durP2;ratioP2;P2;SDS_P1;SDS_P2;PMS_P1;PMS_P2;Temp;Humidity;BMP_temperature;BMP_pressure;BME280_temperature;BME280_humidity;BME280_pressure;Samples;Min_cycle;Max_cycle;Signal;HPM_P1;HPM_P2
2021/01/30 00:00:27;;;;;;;67.33;49.77;;;3.00;90.90;;;;;;5009156;28;20212;-62
2021/01/30 00:02:54;;;;;;;73.23;50.40;;;2.90;90.90;;;;;;5022235;28;20214;-62
2021/01/30 00:05:21;;;;;;;69.20;51.07;;;2.80;90.90;;;;;;5006930;28;20627;-62
2021/01/30 00:07:48;;;;;;;70.20;51.47;;;2.80;91.00;;;;;;5006843;28;20213;-62
2021/01/30 00:10:17;;;;;;;81.93;51.60;;;2.70;90.90;;;;;;5011746;28;20239;-62
2021/01/30 00:12:43;;;;;;;72.20;52.40;;;2.70;91.30;;;;;;5003836;28;20238;-62
2021/01/30 00:15:12;;;;;;;73.30;51.53;;;2.70;91.10;;;;;;5001956;28;20789;-62
2021/01/30 00:17:38;;;;;;;75.17;50.90;;;2.70;91.10;;;;;;5010288;28;20636;-62
2021/01/30 00:20:07;;;;;;;73.10;50.80;;;2.70;91.10;;;;;;5007297;28;20299;-62
2021/01/30 00:22:34;;;;;;;80.70;50.57;;;2.70;91.10;;;;;;5008544;28;20207;-62
2021/01/30 00:25:01;;;;;;;85.33;52.10;;;2.60;91.10;;;;;;5006719;28;20263;-62
2021/01/30 00:27:28;;;;;;;77.37;54.03;;;2.60;91.20;;;;;;5000388;28;20230;-62
2021/01/30 00:29:55;;;;;;;75.93;52.60;;;2.60;91.30;;;;;;4995630;28;20233;-62
2021/01/30 00:32:21;;;;;;;76.63;54.03;;;2.60;91.40;;;;;;5000875;28;20213;-62
2021/01/30 00:34:49;;;;;;;77.70;54.13;;;2.70;91.50;;;;;;5007860;28;20223;-62
2021/01/30 00:37:20;;;;;;;82.90;54.70;;;2.80;91.60;;;;;;5000418;28;20316;-62
2021/01/30 00:39:49;;;;;;;83.20;57.53;;;2.80;91.50;;;;;;4996495;28;20559;-62
2021/01/30 00:42:17;;;;;;;79.83;53.93;;;2.90;91.60;;;;;;5010578;28;20214;-62
2021/01/30 00:44:45;;;;;;;71.13;52.77;;;2.90;91.50;;;;;;5008284;28;20226;-62
2021/01/30 00:47:12;;;;;;;76.87;53.50;;;2.90;91.50;;;;;;5000836;28;20277;-62
2021/01/30 00:49:40;;;;;;;80.77;53.40;;;3.00;91.60;;;;;;5011655;28;20242;-62
2021/01/30 00:52:08;;;;;;;78.30;52.40;;;3.00;91.60;;;;;;5005076;28;20216;-62
2021/01/30 00:54:35;;;;;;;75.33;54.43;;;3.00;91.50;;;;;;4999904;28;20548;-62
2021/01/30 00:57:02;;;;;;;81.33;53.67;;;3.00;91.50;;;;;;5008613;28;20208;-62
2021/01/30 00:59:28;;;;;;;74.20;52.80;;;3.00;91.50;;;;;;4999800;28;20217;-62
2021/01/30 01:01:55;;;;;;;72.90;53.20;;;3.00;91.50;;;;;;5002069;28;20234;-62
2021/01/30 01:04:22;;;;;;;69.47;50.70;;;3.00;91.50;;;;;;5004510;28;20788;-62
2021/01/30 01:06:49;;;;;;;75.63;50.70;;;3.00;91.50;;;;;;5001210;28;20216;-62
2021/01/30 01:09:17;;;;;;;77.97;53.17;;;3.00;91.50;;;;;;5015143;28;20630;-62
2021/01/30 01:11:46;;;;;;;75.47;50.63;;;2.90;91.40;;;;;;5024812;28;20545;-62
2021/01/30 01:14:13;;;;;;;72.27;50.07;;;2.90;91.40;;;;;;4997729;28;20232;-62
2021/01/30 01:16:40;;;;;;;67.03;48.97;;;2.90;91.40;;;;;;5013931;28;20219;-62
2021/01/30 01:19:07;;;;;;;63.80;47.83;;;2.80;91.30;;;;;;5030548;28;20242;-62
2021/01/30 01:21:33;;;;;;;69.47;47.87;;;2.80;91.30;;;;;;5026815;28;20239;-62
2021/01/30 01:24:00;;;;;;;71.33;49.20;;;2.60;91.20;;;;;;5012811;28;20218;-62
2021/01/30 01:26:27;;;;;;;77.53;50.87;;;2.60;91.40;;;;;;5008917;28;20212;-62
2021/01/30 01:28:53;;;;;;;70.23;52.23;;;2.50;91.40;;;;;;5012528;28;20214;-62
2021/01/30 01:31:21;;;;;;;65.50;47.10;;;2.50;91.50;;;;;;5013130;28;20230;-62
2021/01/30 01:33:48;;;;;;;79.63;52.97;;;2.40;91.50;;;;;;5013804;28;20267;-62
2021/01/30 01:36:18;;;;;;;73.07;49.53;;;2.40;91.50;;;;;;5011173;28;20230;-62
2021/01/30 01:38:44;;;;;;;71.20;50.90;;;2.40;91.60;;;;;;5013952;28;20654;-62
2021/01/30 01:41:12;;;;;;;74.63;53.13;;;2.40;91.70;;;;;;5011879;28;20219;-62
2021/01/30 01:43:39;;;;;;;81.80;55.00;;;2.30;91.70;;;;;;5008023;28;20223;-62
2021/01/30 01:46:19;;;;;;;79.53;53.47;;;2.30;91.70;;;;;;5011129;28;20208;-62
2021/01/30 01:48:55;;;;;;;74.50;51.47;;;2.30;91.90;;;;;;5011308;28;20239;-62
2021/01/30 01:51:42;;;;;;;71.67;52.13;;;2.30;91.90;;;;;;5001822;28;20218;-62
2021/01/30 01:54:20;;;;;;;73.63;51.13;;;2.30;91.90;;;;;;5008821;28;20228;-62
2021/01/30 01:56:51;;;;;;;67.93;49.83;;;2.40;91.90;;;;;;5013242;28;20218;-62
2021/01/30 01:59:19;;;;;;;81.93;53.30;;;2.30;91.90;;;;;;5021354;28;20208;-62
2021/01/30 02:01:46;;;;;;;69.13;49.47;;;2.30;91.90;;;;;;5014235;28;20204;-62
2021/01/30 02:04:16;;;;;;;78.37;52.97;;;2.30;91.90;;;;;;5013964;28;20635;-62
2021/01/30 02:06:45;;;;;;;73.50;51.60;;;2.30;91.90;;;;;;5001373;28;20212;-62
2021/01/30 02:09:21;;;;;;;65.37;44.73;;;2.30;91.90;;;;;;5006283;28;20291;-62
2021/01/30 02:12:09;;;;;;;67.77;45.87;;;2.30;91.80;;;;;;5004780;28;20227;-62
2021/01/30 02:14:39;;;;;;;72.23;48.73;;;2.20;91.70;;;;;;5004089;28;20236;-62
2021/01/30 02:17:26;;;;;;;67.60;50.07;;;2.10;91.70;;;;;;5012462;28;20238;-62
2021/01/30 02:20:20;;;;;;;70.90;50.80;;;2.10;91.80;;;;;;5012604;28;20291;-62
2021/01/30 02:23:02;;;;;;;72.33;46.43;;;2.00;91.80;;;;;;5022839;28;20670;-62
2021/01/30 02:25:57;;;;;;;67.50;46.50;;;2.00;91.80;;;;;;5011637;28;20580;-62
2021/01/30 02:28:32;;;;;;;72.47;49.93;;;2.00;91.80;;;;;;5008655;28;20552;-62
2021/01/30 02:31:37;;;;;;;75.07;50.67;;;2.00;91.80;;;;;;5028006;28;20215;-62
2021/01/30 02:34:07;;;;;;;70.03;47.10;;;2.00;91.90;;;;;;5009477;28;20246;-62
2021/01/30 02:36:57;;;;;;;64.80;46.40;;;2.00;91.90;;;;;;5008634;28;20208;-62
2021/01/30 02:39:29;;;;;;;69.03;46.80;;;1.90;91.70;;;;;;5018716;28;20279;-62
2021/01/30 02:42:22;;;;;;;75.57;51.00;;;1.80;91.40;;;;;;5012401;28;20220;-62
2021/01/30 02:45:03;;;;;;;73.97;50.23;;;1.60;91.50;;;;;;5009352;28;20306;-62
2021/01/30 02:47:36;;;;;;;77.80;50.90;;;1.60;91.80;;;;;;5013045;28;20225;-62
2021/01/30 02:50:21;;;;;;;81.43;50.13;;;1.50;91.90;;;;;;5008564;28;20226;-62
2021/01/30 02:52:50;;;;;;;67.40;47.90;;;1.50;92.00;;;;;;5011062;28;20671;-62
2021/01/30 02:55:19;;;;;;;64.43;45.70;;;1.50;92.00;;;;;;5004181;28;20232;-62
2021/01/30 02:57:47;;;;;;;72.93;47.23;;;1.50;92.00;;;;;;5011956;28;20215;-62
2021/01/30 03:00:18;;;;;;;72.10;48.50;;;1.50;91.90;;;;;;5009534;28;20222;-62
2021/01/30 03:02:44;;;;;;;65.93;47.30;;;1.40;91.80;;;;;;5028240;28;20624;-62
2021/01/30 03:05:12;;;;;;;73.27;50.77;;;1.40;91.90;;;;;;5024709;28;20216;-62
2021/01/30 03:07:45;;;;;;;76.07;51.17;;;1.30;92.00;;;;;;5011623;28;20239;-62
2021/01/30 03:10:30;;;;;;;74.67;49.80;;;1.40;92.20;;;;;;5012641;28;20591;-62
2021/01/30 03:13:06;;;;;;;76.53;51.93;;;1.40;92.20;;;;;;5010518;28;20209;-62
2021/01/30 03:15:50;;;;;;;72.80;48.03;;;1.40;92.20;;;;;;5015007;28;20672;-62
2021/01/30 03:18:23;;;;;;;63.90;45.03;;;1.40;92.20;;;;;;4990286;28;20212;-62
2021/01/30 03:20:50;;;;;;;62.47;43.30;;;1.40;91.90;;;;;;5020948;28;20203;-62
2021/01/30 03:23:19;;;;;;;64.80;44.03;;;1.30;91.70;;;;;;5003444;28;20216;-62
2021/01/30 03:25:46;;;;;;;55.50;39.80;;;1.20;91.60;;;;;;5010387;28;20208;-62
2021/01/30 03:28:13;;;;;;;65.77;40.37;;;1.10;91.50;;;;;;5008645;28;20507;-62
2021/01/30 03:30:42;;;;;;;77.23;47.07;;;1.00;91.20;;;;;;4999894;28;20216;-62
2021/01/30 03:33:09;;;;;;;67.17;46.50;;;0.80;91.20;;;;;;5012039;28;20207;-62
2021/01/30 03:35:35;;;;;;;67.87;45.60;;;0.70;91.40;;;;;;5008062;28;20258;-63
2021/01/30 03:38:03;;;;;;;83.37;50.03;;;0.70;91.60;;;;;;5003913;28;20200;-62
2021/01/30 03:40:29;;;;;;;79.33;50.47;;;0.70;91.80;;;;;;5011995;28;20207;-62
2021/01/30 03:43:00;;;;;;;70.10;48.47;;;0.70;91.90;;;;;;5007433;28;20208;-62
2021/01/30 03:45:29;;;;;;;66.97;44.90;;;0.80;92.00;;;;;;5022161;28;20242;-62
2021/01/30 03:47:56;;;;;;;76.10;48.93;;;0.80;92.00;;;;;;5008525;28;20306;-62
2021/01/30 03:50:23;;;;;;;61.87;43.80;;;0.80;92.00;;;;;;5006160;28;20220;-63
2021/01/30 03:52:52;;;;;;;64.97;46.10;;;0.80;92.00;;;;;;5010295;28;20451;-62
2021/01/30 03:55:20;;;;;;;76.20;50.40;;;0.80;92.00;;;;;;5010058;28;20323;-62
2021/01/30 03:57:46;;;;;;;64.50;43.43;;;0.80;92.00;;;;;;5011292;28;20204;-62
2021/01/30 04:00:19;;;;;;;68.87;44.17;;;0.90;92.10;;;;;;5010841;28;20216;-62
2021/01/30 04:02:47;;;;;;;65.93;43.70;;;0.90;92.00;;;;;;5011075;28;20666;-62
2021/01/30 04:05:20;;;;;;;69.10;44.77;;;0.90;92.00;;;;;;5007931;28;20647;-62
2021/01/30 04:07:50;;;;;;;73.80;48.03;;;0.90;91.80;;;;;;4998427;28;20320;-62
2021/01/30 04:10:21;;;;;;;80.33;52.43;;;0.80;91.80;;;;;;5018038;28;20239;-62
2021/01/30 04:12:48;;;;;;;77.93;53.37;;;0.80;92.00;;;;;;5029720;28;20211;-62
2021/01/30 04:15:21;;;;;;;78.93;50.53;;;0.90;92.10;;;;;;5031259;28;20231;-62
2021/01/30 04:17:48;;;;;;;72.10;47.33;;;0.90;92.20;;;;;;5030410;28;20650;-62
2021/01/30 04:20:16;;;;;;;73.73;49.27;;;1.00;92.10;;;;;;5030250;28;20208;-62
2021/01/30 04:22:43;;;;;;;80.67;53.30;;;1.00;92.40;;;;;;5014594;28;20222;-62
2021/01/30 04:25:11;;;;;;;78.00;51.40;;;1.00;92.30;;;;;;5029113;28;20211;-62
2021/01/30 04:27:38;;;;;;;74.30;51.87;;;1.00;92.30;;;;;;5030743;28;20199;-62
2021/01/30 04:30:06;;;;;;;73.20;48.77;;;1.00;92.30;;;;;;5022753;28;20573;-62
2021/01/30 04:32:33;;;;;;;77.57;50.73;;;1.00;92.40;;;;;;5026403;28;20219;-62
2021/01/30 04:34:59;;;;;;;92.20;55.83;;;1.00;92.30;;;;;;5029460;28;20223;-62
2021/01/30 04:37:26;;;;;;;108.17;64.23;;;1.00;92.40;;;;;;5029431;28;20235;-62
2021/01/30 04:39:53;;;;;;;105.37;65.63;;;1.10;92.80;;;;;;5032778;28;20218;-62
2021/01/30 04:42:48;;;;;;;102.87;64.77;;;1.20;93.40;;;;;;5034871;28;20642;-62
2021/01/30 04:45:41;;;;;;;103.30;64.73;;;1.50;93.30;;;;;;5031580;28;20219;-62
2021/01/30 04:48:52;;;;;;;100.60;64.33;;;1.70;93.30;;;;;;5034136;28;20823;-62
2021/01/30 04:51:46;;;;;;;89.80;59.50;;;1.90;93.20;;;;;;5032995;28;20204;-62
2021/01/30 04:54:48;;;;;;;81.20;53.13;;;2.00;93.10;;;;;;5028518;28;20726;-62
2021/01/30 04:57:29;;;;;;;66.17;45.80;;;2.10;92.90;;;;;;4971881;28;20258;-62
2021/01/30 05:00:28;;;;;;;66.93;46.77;;;2.00;93.00;;;;;;5022746;28;20210;-62
2021/01/30 05:03:34;;;;;;;66.67;44.87;;;1.90;92.60;;;;;;4990909;28;20202;-62
2021/01/30 05:06:33;;;;;;;61.67;43.43;;;1.70;92.60;;;;;;5028533;28;20203;-62
2021/01/30 05:09:05;;;;;;;60.57;43.23;;;1.60;92.60;;;;;;5021967;28;20241;-63
2021/01/30 05:11:33;;;;;;;67.60;46.33;;;1.50;92.60;;;;;;5033234;28;20270;-62
2021/01/30 05:14:10;;;;;;;68.00;47.10;;;1.40;92.50;;;;;;5031810;28;20219;-62
2021/01/30 05:16:54;;;;;;;67.07;46.07;;;1.30;92.60;;;;;;5017684;28;20203;-62
2021/01/30 05:19:23;;;;;;;64.57;44.87;;;1.30;92.70;;;;;;5015152;28;20207;-62
2021/01/30 05:21:53;;;;;;;74.70;48.27;;;1.20;92.60;;;;;;5029795;28;20667;-63
2021/01/30 05:24:22;;;;;;;61.83;44.40;;;1.20;92.70;;;;;;5017462;28;20701;-62
2021/01/30 05:27:13;;;;;;;63.53;43.97;;;1.20;92.70;;;;;;5034833;28;20539;-62
2021/01/30 05:30:09;;;;;;;63.97;44.20;;;1.20;92.60;;;;;;5024975;28;20623;-62
2021/01/30 05:33:03;;;;;;;65.07;43.43;;;1.20;92.60;;;;;;5024527;28;20215;-63
2021/01/30 05:35:51;;;;;;;67.47;42.97;;;1.10;92.40;;;;;;5026552;28;20288;-62
2021/01/30 05:38:44;;;;;;;57.73;39.87;;;1.10;92.30;;;;;;5033486;28;20258;-62
2021/01/30 05:41:32;;;;;;;66.80;46.07;;;1.00;92.20;;;;;;5028983;28;20549;-62
2021/01/30 05:44:10;;;;;;;63.27;44.63;;;0.90;92.20;;;;;;5032878;28;20207;-62
2021/01/30 05:46:38;;;;;;;61.63;44.23;;;0.90;92.20;;;;;;5023657;28;20246;-62
2021/01/30 05:49:13;;;;;;;55.13;38.97;;;0.90;92.30;;;;;;5028785;28;20199;-62
2021/01/30 05:51:47;;;;;;;55.30;39.70;;;0.90;92.10;;;;;;5034032;28;20207;-62
2021/01/30 05:54:14;;;;;;;60.97;39.90;;;0.70;91.80;;;;;;5021859;28;20607;-62
2021/01/30 05:56:44;;;;;;;55.43;41.00;;;0.60;91.80;;;;;;5020902;28;20223;-62
2021/01/30 05:59:25;;;;;;;59.00;41.37;;;0.60;92.00;;;;;;5019574;28;20230;-62
2021/01/30 06:02:16;;;;;;;65.97;44.07;;;0.60;92.30;;;;;;5019754;28;20203;-62
2021/01/30 06:04:43;;;;;;;70.30;46.57;;;0.70;92.10;;;;;;5030619;28;20203;-62
2021/01/30 06:07:39;;;;;;;66.13;43.73;;;0.70;92.20;;;;;;5024790;28;20219;-63
2021/01/30 06:10:38;;;;;;;68.00;45.57;;;0.80;92.20;;;;;;5013782;28;20250;-62
2021/01/30 06:13:24;;;;;;;55.50;39.33;;;0.90;92.30;;;;;;4972326;28;20672;-62
2021/01/30 06:16:02;;;;;;;60.93;42.53;;;0.90;92.10;;;;;;5015978;28;20235;-62
2021/01/30 06:18:40;;;;;;;63.00;42.77;;;0.90;92.00;;;;;;5030251;28;20214;-62
2021/01/30 06:21:21;;;;;;;76.37;49.00;;;0.80;92.00;;;;;;5023565;28;20210;-62
2021/01/30 06:24:01;;;;;;;70.57;46.20;;;0.80;92.00;;;;;;5033057;28;20210;-62
2021/01/30 06:26:28;;;;;;;73.97;50.27;;;0.90;92.20;;;;;;5027468;28;20211;-62
2021/01/30 06:29:03;;;;;;;56.47;41.47;;;0.90;92.20;;;;;;5010677;28;20635;-62
2021/01/30 06:31:33;;;;;;;79.83;48.30;;;1.00;92.30;;;;;;5027402;28;20218;-62
2021/01/30 06:34:26;;;;;;;64.47;46.17;;;1.00;92.20;;;;;;5030513;28;20250;-62
2021/01/30 06:36:53;;;;;;;66.07;44.73;;;1.10;92.20;;;;;;5024175;28;20204;-62
2021/01/30 06:39:31;;;;;;;67.83;45.27;;;1.10;92.20;;;;;;5017134;28;20282;-62
2021/01/30 06:42:22;;;;;;;61.17;45.13;;;1.10;92.20;;;;;;5022026;28;20290;-62
2021/01/30 06:44:50;;;;;;;61.60;41.50;;;1.20;92.20;;;;;;5007288;28;20243;-62
2021/01/30 06:47:18;;;;;;;60.20;39.23;;;1.20;92.10;;;;;;5015343;28;20226;-62
2021/01/30 06:49:47;;;;;;;56.40;39.27;;;1.20;92.30;;;;;;5028063;28;20225;-62
2021/01/30 06:52:34;;;;;;;59.00;43.33;;;1.10;91.90;;;;;;5017391;28;20211;-62
2021/01/30 06:55:06;;;;;;;57.93;39.77;;;1.00;91.90;;;;;;5029224;28;20243;-62
2021/01/30 06:57:40;;;;;;;65.90;42.17;;;1.00;91.90;;;;;;5032049;28;20199;-62
2021/01/30 07:00:25;;;;;;;58.17;42.27;;;1.00;92.00;;;;;;5028444;28;20203;-62
2021/01/30 07:03:03;;;;;;;56.27;40.73;;;1.10;92.10;;;;;;5032698;28;20206;-62
2021/01/30 07:05:50;;;;;;;63.97;43.77;;;1.10;92.00;;;;;;5030576;28;20218;-62
2021/01/30 07:08:19;;;;;;;65.27;41.27;;;1.20;92.10;;;;;;5026733;28;20211;-62
2021/01/30 07:11:16;;;;;;;62.23;42.77;;;1.30;92.10;;;;;;5031532;28;20242;-62
2021/01/30 07:13:48;;;;;;;54.63;39.37;;;1.30;92.10;;;;;;5031220;28;20233;-62
2021/01/30 07:16:18;;;;;;;58.10;41.67;;;1.40;92.10;;;;;;5031776;28;20566;-62
2021/01/30 07:18:59;;;;;;;53.07;37.00;;;1.50;92.00;;;;;;5031770;28;20273;-62
2021/01/30 07:21:29;;;;;;;49.80;35.73;;;1.60;92.20;;;;;;5024173;28;20537;-62
2021/01/30 07:24:11;;;;;;;59.97;37.77;;;1.60;92.10;;;;;;5031743;28;20215;-62
2021/01/30 07:27:10;;;;;;;55.13;37.40;;;1.70;92.00;;;;;;5032030;28;20234;-62
2021/01/30 07:29:58;;;;;;;56.13;38.50;;;1.90;91.80;;;;;;4996715;28;20211;-62
2021/01/30 07:32:38;;;;;;;54.23;37.00;;;2.00;91.70;;;;;;5019431;28;20501;-62
2021/01/30 07:35:33;;;;;;;58.40;38.53;;;2.10;91.50;;;;;;5013278;28;20241;-62
2021/01/30 07:38:20;;;;;;;50.87;37.87;;;2.30;91.20;;;;;;5025276;28;20214;-62
2021/01/30 07:40:57;;;;;;;65.83;40.13;;;2.50;90.90;;;;;;5029767;28;20524;-62
2021/01/30 07:43:36;;;;;;;57.03;39.43;;;2.60;90.70;;;;;;5026966;28;20638;-62
2021/01/30 07:46:24;;;;;;;61.73;42.67;;;2.80;90.50;;;;;;5029811;28;20290;-62
2021/01/30 07:49:01;;;;;;;59.53;40.87;;;2.80;90.40;;;;;;5031116;28;20253;-62
2021/01/30 07:51:45;;;;;;;61.90;41.93;;;2.90;90.50;;;;;;5025244;28;20646;-62
2021/01/30 07:54:13;;;;;;;56.23;40.50;;;2.90;90.50;;;;;;5027458;28;20652;-62
2021/01/30 07:56:56;;;;;;;60.60;41.03;;;3.00;90.50;;;;;;5024891;28;20218;-62
2021/01/30 07:59:36;;;;;;;58.87;42.63;;;3.20;90.40;;;;;;5029170;28;20597;-62
2021/01/30 08:02:15;;;;;;;52.20;39.27;;;3.40;90.40;;;;;;5022140;28;20207;-62
2021/01/30 08:05:05;;;;;;;57.23;40.87;;;3.40;90.20;;;;;;5030904;28;20202;-62
2021/01/30 08:07:49;;;;;;;60.87;41.73;;;3.50;90.20;;;;;;5031257;28;20646;-62
2021/01/30 08:10:40;;;;;;;62.50;43.73;;;3.60;90.20;;;;;;5024914;28;20239;-62
2021/01/30 08:13:25;;;;;;;55.63;41.53;;;3.60;90.10;;;;;;5023314;28;20548;-62
2021/01/30 08:16:24;;;;;;;53.20;41.40;;;3.70;90.10;;;;;;5029795;28;20222;-62
2021/01/30 08:18:53;;;;;;;57.60;41.00;;;3.80;90.10;;;;;;5027390;28;20207;-62
2021/01/30 08:22:07;;;;;;;56.97;40.60;;;3.80;90.10;;;;;;5031045;28;20211;-62
2021/01/30 08:24:45;;;;;;;58.20;40.30;;;3.80;90.10;;;;;;4935724;29;20240;-62
2021/01/30 08:27:39;;;;;;;60.67;41.40;;;3.90;90.10;;;;;;5000571;28;20613;-62
2021/01/30 08:30:16;;;;;;;63.63;43.07;;;3.90;90.20;;;;;;5021127;28;20214;-63
2021/01/30 08:33:04;;;;;;;58.30;42.07;;;4.10;90.10;;;;;;5013776;28;20229;-62
2021/01/30 08:35:41;;;;;;;48.77;37.70;;;4.20;90.10;;;;;;5024325;28;20261;-62
2021/01/30 08:38:31;;;;;;;47.57;36.33;;;4.30;90.10;;;;;;5028858;28;20221;-63
2021/01/30 08:41:04;;;;;;;45.90;33.97;;;4.40;90.10;;;;;;5030756;28;20207;-62
2021/01/30 08:43:45;;;;;;;40.10;32.40;;;4.70;90.00;;;;;;5030817;28;20203;-62
2021/01/30 08:46:37;;;;;;;46.10;31.83;;;4.80;89.60;;;;;;5027286;28;20245;-62
2021/01/30 08:49:16;;;;;;;44.40;31.07;;;5.20;89.00;;;;;;5005821;28;20231;-62
2021/01/30 08:51:45;;;;;;;50.93;36.70;;;5.40;88.30;;;;;;5024826;28;20552;-62
2021/01/30 08:54:34;;;;;;;57.20;39.97;;;5.70;87.70;;;;;;5013210;28;20215;-62
2021/01/30 08:57:03;;;;;;;43.43;32.37;;;6.00;87.00;;;;;;5030409;28;20544;-62
2021/01/30 08:59:50;;;;;;;39.30;30.50;;;6.30;86.30;;;;;;5023409;28;20213;-62
2021/01/30 09:02:48;;;;;;;48.07;33.13;;;6.50;85.80;;;;;;5033683;28;20203;-62
2021/01/30 09:05:21;;;;;;;51.03;36.10;;;6.60;85.60;;;;;;5025804;28;20215;-62
2021/01/30 09:07:52;;;;;;;52.90;37.17;;;6.60;85.70;;;;;;5027297;28;20211;-62
2021/01/30 09:10:22;;;;;;;60.70;39.33;;;6.60;85.40;;;;;;5030917;28;20772;-62
2021/01/30 09:12:57;;;;;;;57.70;39.90;;;6.60;85.20;;;;;;5027088;28;20226;-62
2021/01/30 09:15:42;;;;;;;53.17;36.67;;;6.60;85.20;;;;;;5019843;28;20230;-62
2021/01/30 09:18:18;;;;;;;44.27;34.90;;;6.60;85.20;;;;;;5014225;28;20246;-62
2021/01/30 09:21:13;;;;;;;51.97;36.07;;;6.60;85.30;;;;;;5030116;28;20214;-62
2021/01/30 09:24:14;;;;;;;51.03;34.60;;;6.70;85.30;;;;;;4994799;28;20226;-62
2021/01/30 09:26:56;;;;;;;42.53;33.63;;;6.70;85.10;;;;;;5028033;28;20302;-62
2021/01/30 09:29:33;;;;;;;45.93;35.37;;;6.80;84.90;;;;;;5032361;28;20221;-62
2021/01/30 09:32:00;;;;;;;41.77;31.60;;;6.90;84.70;;;;;;5028527;28;20578;-62
2021/01/30 09:34:33;;;;;;;44.67;33.30;;;7.10;84.60;;;;;;5032322;28;20538;-62
2021/01/30 09:37:00;;;;;;;37.60;31.03;;;7.40;84.20;;;;;;5028641;28;20223;-62
2021/01/30 09:39:35;;;;;;;40.13;31.17;;;7.60;83.70;;;;;;5029591;28;20203;-62
2021/01/30 09:42:06;;;;;;;39.80;30.63;;;7.80;83.10;;;;;;5033409;28;20211;-62
2021/01/30 09:44:33;;;;;;;41.27;31.87;;;8.00;82.50;;;;;;5027771;28;20203;-62
2021/01/30 09:47:04;;;;;;;40.07;33.27;;;8.20;82.10;;;;;;5033220;28;20225;-62
2021/01/30 09:49:39;;;;;;;40.83;31.83;;;8.40;81.50;;;;;;5032463;28;20253;-62
2021/01/30 09:52:06;;;;;;;38.90;31.40;;;8.50;81.10;;;;;;5027799;28;20210;-62
2021/01/30 09:54:33;;;;;;;40.53;30.97;;;8.60;80.70;;;;;;5030885;28;20528;-62
2021/01/30 09:57:13;;;;;;;38.63;30.67;;;8.70;80.40;;;;;;5028371;28;20538;-62
2021/01/30 09:59:39;;;;;;;38.80;30.93;;;8.80;80.10;;;;;;5031873;28;20549;-62
2021/01/30 10:02:21;;;;;;;35.93;27.83;;;8.90;80.00;;;;;;5034908;28;20214;-62
2021/01/30 10:05:00;;;;;;;35.63;28.53;;;9.10;79.30;;;;;;5028828;28;20245;-62
2021/01/30 10:07:26;;;;;;;34.83;27.93;;;9.30;78.90;;;;;;5033265;28;20229;-62
2021/01/30 10:09:56;;;;;;;33.93;26.20;;;9.50;78.50;;;;;;5031453;28;20239;-62
2021/01/30 10:12:24;;;;;;;33.00;27.20;;;9.70;77.80;;;;;;5031672;28;20211;-62
2021/01/30 10:14:55;;;;;;;33.13;24.37;;;9.90;77.40;;;;;;5026324;28;20313;-62
2021/01/30 10:17:35;;;;;;;35.20;26.63;;;10.00;76.70;;;;;;5029456;28;20207;-62
2021/01/30 10:20:08;;;;;;;35.60;25.10;;;10.20;76.10;;;;;;5030691;28;20230;-62
2021/01/30 10:22:40;;;;;;;36.10;27.13;;;10.30;75.60;;;;;;5024753;28;20208;-62
2021/01/30 10:25:10;;;;;;;35.47;26.27;;;10.40;74.80;;;;;;5028880;28;20211;-62
2021/01/30 10:27:37;;;;;;;33.13;25.73;;;10.50;74.40;;;;;;5025209;28;20207;-62
2021/01/30 10:30:07;;;;;;;36.40;26.50;;;10.60;74.30;;;;;;5032789;28;20211;-62
2021/01/30 10:32:42;;;;;;;29.57;26.13;;;10.60;74.20;;;;;;5032231;28;20218;-62
2021/01/30 10:35:20;;;;;;;37.20;26.47;;;10.70;73.80;;;;;;5028976;28;20721;-62
2021/01/30 10:37:52;;;;;;;28.63;24.10;;;10.70;73.10;;;;;;5032051;28;20203;-62
2021/01/30 10:40:38;;;;;;;32.77;23.57;;;10.80;72.30;;;;;;5015485;28;20206;-62
2021/01/30 10:43:27;;;;;;;29.70;23.87;;;10.90;71.70;;;;;;5031412;28;20553;-62
2021/01/30 10:45:57;;;;;;;36.73;25.67;;;11.00;71.20;;;;;;5031806;28;20215;-62
2021/01/30 10:48:28;;;;;;;33.13;24.97;;;11.10;71.30;;;;;;5015294;28;20215;-62
2021/01/30 10:51:26;;;;;;;33.03;24.90;;;11.10;71.50;;;;;;5023289;28;20294;-62
2021/01/30 10:54:11;;;;;;;30.60;23.93;;;11.20;71.80;;;;;;5021372;28;20211;-62
2021/01/30 10:56:38;;;;;;;34.87;27.80;;;11.20;71.10;;;;;;5032141;28;20587;-62
2021/01/30 10:59:21;;;;;;;35.17;28.47;;;11.30;71.80;;;;;;5030348;28;20290;-62
2021/01/30 11:01:48;;;;;;;35.23;28.13;;;11.30;71.80;;;;;;5027164;28;20243;-62
2021/01/30 11:04:27;;;;;;;33.00;27.67;;;11.40;72.10;;;;;;5026659;28;20203;-62
2021/01/30 11:06:59;;;;;;;36.40;29.00;;;11.50;71.50;;;;;;5032631;28;20305;-62
2021/01/30 11:09:30;;;;;;;34.53;26.53;;;11.50;70.90;;;;;;5014907;28;20203;-62
2021/01/30 11:12:17;;;;;;;36.00;28.50;;;11.60;70.60;;;;;;5022750;28;20219;-62
2021/01/30 11:14:44;;;;;;;33.73;27.87;;;11.70;70.40;;;;;;5023888;28;20578;-62
2021/01/30 11:17:27;;;;;;;31.47;26.30;;;11.70;70.60;;;;;;5024679;28;20210;-62
2021/01/30 11:19:54;;;;;;;37.67;27.67;;;11.60;70.50;;;;;;5029676;28;20203;-62
2021/01/30 11:22:26;;;;;;;33.97;27.13;;;11.50;70.70;;;;;;5032028;28;20214;-62
2021/01/30 11:25:19;;;;;;;35.00;27.37;;;11.50;71.00;;;;;;5030606;28;20222;-61
2021/01/30 11:27:47;;;;;;;33.80;25.90;;;11.30;70.90;;;;;;5024280;28;20226;-62
2021/01/30 11:30:24;;;;;;;32.80;27.27;;;11.20;71.30;;;;;;5013846;28;20211;-62
2021/01/30 11:33:15;;;;;;;37.83;28.03;;;11.10;71.80;;;;;;5030197;28;20211;-62
2021/01/30 11:35:46;;;;;;;37.80;31.13;;;11.10;73.10;;;;;;5031390;28;20569;-62
2021/01/30 11:38:18;;;;;;;39.93;31.37;;;11.10;73.50;;;;;;5032139;28;20301;-62
2021/01/30 11:40:48;;;;;;;40.40;32.53;;;11.00;73.60;;;;;;5028831;28;20234;-62
2021/01/30 11:43:15;;;;;;;37.77;32.17;;;11.00;73.80;;;;;;5014100;28;20218;-62
2021/01/30 11:45:41;;;;;;;43.60;35.80;;;10.90;73.00;;;;;;5027346;28;20211;-62
2021/01/30 11:48:09;;;;;;;40.13;32.90;;;10.90;73.40;;;;;;5012098;28;20225;-62
2021/01/30 11:50:35;;;;;;;41.93;34.00;;;10.80;73.90;;;;;;5032121;28;20211;-62
2021/01/30 11:53:11;;;;;;;43.03;34.87;;;10.70;74.00;;;;;;5031321;28;20621;-62
2021/01/30 11:55:38;;;;;;;42.87;35.57;;;10.70;74.60;;;;;;5017088;28;20230;-62
2021/01/30 11:58:05;;;;;;;48.67;38.77;;;10.60;75.00;;;;;;5027449;28;20211;-62
2021/01/30 12:00:32;;;;;;;48.97;39.40;;;10.60;75.30;;;;;;5025364;28;20551;-62
2021/01/30 12:03:00;;;;;;;46.60;39.27;;;10.60;75.40;;;;;;5027509;28;20558;-62
2021/01/30 12:05:27;;;;;;;40.53;35.10;;;10.50;75.50;;;;;;5028868;28;20642;-62
2021/01/30 12:07:54;;;;;;;44.60;38.27;;;10.50;76.30;;;;;;5023386;28;20258;-62
2021/01/30 12:10:21;;;;;;;47.43;37.73;;;10.50;75.50;;;;;;5021589;28;20639;-62
2021/01/30 12:12:48;;;;;;;42.30;34.57;;;10.40;76.10;;;;;;5030650;28;20211;-62
2021/01/30 12:15:15;;;;;;;40.83;35.83;;;10.40;76.40;;;;;;5023520;28;20306;-62
2021/01/30 12:17:44;;;;;;;51.83;39.43;;;10.30;76.00;;;;;;5027661;28;20213;-62
2021/01/30 12:20:24;;;;;;;55.57;39.23;;;10.30;76.50;;;;;;5027143;28;20212;-62
2021/01/30 12:22:51;;;;;;;47.47;40.10;;;10.20;76.80;;;;;;5029927;28;20211;-62
2021/01/30 12:25:19;;;;;;;48.27;38.87;;;10.20;76.70;;;;;;5031402;28;20219;-62
2021/01/30 12:27:54;;;;;;;48.00;38.67;;;10.20;76.60;;;;;;5030958;28;20214;-62
2021/01/30 12:30:23;;;;;;;55.40;42.80;;;10.10;76.70;;;;;;5039106;28;20215;-62
2021/01/30 12:32:51;;;;;;;51.00;41.57;;;10.10;77.00;;;;;;5025593;28;20211;-62
2021/01/30 12:35:22;;;;;;;50.07;41.47;;;10.10;77.20;;;;;;5011325;28;20231;-62
2021/01/30 12:37:50;;;;;;;51.10;41.67;;;10.10;77.60;;;;;;5010904;28;20214;-61
2021/01/30 12:40:20;;;;;;;51.63;40.47;;;10.10;77.90;;;;;;5015313;28;20678;-61
2021/01/30 12:42:48;;;;;;;52.97;43.07;;;10.10;77.70;;;;;;5011050;28;20211;-61
2021/01/30 12:45:15;;;;;;;49.87;39.13;;;10.00;78.00;;;;;;5025212;28;20221;-61
2021/01/30 12:47:41;;;;;;;49.83;41.17;;;10.00;78.30;;;;;;5030647;28;20211;-62
2021/01/30 12:50:12;;;;;;;54.37;44.10;;;10.00;78.20;;;;;;5022504;28;20727;-61
2021/01/30 12:52:39;;;;;;;56.03;43.43;;;10.00;78.10;;;;;;5027626;28;20577;-61
2021/01/30 12:55:06;;;;;;;51.73;42.83;;;9.90;78.10;;;;;;5028734;28;20231;-61
2021/01/30 12:57:33;;;;;;;51.93;44.97;;;10.00;78.40;;;;;;5025523;28;20204;-61
2021/01/30 12:59:59;;;;;;;55.63;44.47;;;9.90;78.40;;;;;;5025046;28;20216;-61
2021/01/30 13:02:26;;;;;;;54.83;43.20;;;9.90;78.10;;;;;;5013130;28;20404;-61
2021/01/30 13:04:53;;;;;;;55.00;43.63;;;9.90;78.30;;;;;;5027721;28;20558;-61
2021/01/30 13:07:20;;;;;;;52.70;43.50;;;9.90;78.40;;;;;;5026335;28;20203;-61
2021/01/30 13:09:46;;;;;;;58.53;46.03;;;9.90;78.20;;;;;;5033690;28;20239;-61
2021/01/30 13:12:13;;;;;;;56.73;45.70;;;9.90;78.40;;;;;;5022416;28;20233;-61
2021/01/30 13:14:40;;;;;;;58.27;46.37;;;9.90;79.00;;;;;;5034838;28;20218;-61